createdAt,value
2024-03-02T00:00:00.909Z,100425.38
2024-03-02T00:02:02.604Z,100421.09
2024-03-02T00:04:09.182Z,100423.69
2024-03-02T00:06:11.559Z,100421.13
2024-03-02T00:08:20.291Z,100422.88
2024-03-02T00:10:30.049Z,100427.25
2024-03-02T00:12:31.828Z,100425.56
2024-03-02T00:14:33.681Z,100422.09
2024-03-02T00:16:35.597Z,100422.19
2024-03-02T00:18:38.058Z,100424.81
2024-03-02T00:20:40.631Z,100435.16
2024-03-02T00:22:42.325Z,100423.94
2024-03-02T00:24:44.456Z,100418.81
2024-03-02T00:26:49.323Z,100424.88
2024-03-02T00:28:55.304Z,100424.03
2024-03-02T00:31:07.290Z,100418.91
2024-03-02T00:33:09.126Z,100419.81
2024-03-02T00:35:11.505Z,100409.50
2024-03-02T00:37:13.348Z,100412.09
2024-03-02T00:39:18.394Z,100413.84
2024-03-02T00:41:33.048Z,100406.13
2024-03-02T00:43:48.076Z,100402.75
2024-03-02T00:45:50.390Z,100404.50
2024-03-02T00:47:53.110Z,100404.50
2024-03-02T00:49:54.841Z,100404.56
2024-03-02T00:51:57.224Z,100407.16
2024-03-02T00:54:02.168Z,100409.75
2024-03-02T00:56:04.316Z,100405.47
2024-03-02T00:58:05.997Z,100401.19
2024-03-02T01:00:11.465Z,100406.38
2024-03-02T01:02:13.163Z,100399.50
2024-03-02T01:04:15.501Z,100396.06
2024-03-02T01:06:18.327Z,100396.97
2024-03-02T01:08:20.118Z,100397.03
2024-03-02T01:10:21.867Z,100389.31
2024-03-02T01:12:23.664Z,100393.66
2024-03-02T01:14:25.347Z,100398.00
2024-03-02T01:16:27.103Z,100392.88
2024-03-02T01:18:28.846Z,100387.75
2024-03-02T01:20:30.604Z,100387.75
2024-03-02T01:22:32.367Z,100384.38
2024-03-02T01:24:34.418Z,100386.13
2024-03-02T01:26:36.143Z,100383.59
2024-03-02T01:28:37.869Z,100376.75
2024-03-02T01:30:39.657Z,100385.47
2024-03-02T01:32:41.443Z,100381.19
2024-03-02T01:34:43.176Z,100378.59
2024-03-02T01:36:44.936Z,100379.50
2024-03-02T01:38:46.704Z,100377.81
2024-03-02T01:40:48.620Z,100377.88
2024-03-02T01:42:50.507Z,100365.84
2024-03-02T01:44:52.729Z,100375.41
2024-03-02T01:46:54.458Z,100371.97
2024-03-02T01:48:56.213Z,100369.47
2024-03-02T01:50:58.544Z,100372.13
2024-03-02T01:53:01.337Z,100373.88
2024-03-02T01:55:03.083Z,100378.22
2024-03-02T01:57:05.098Z,100373.09
2024-03-02T01:59:07.008Z,100361.06
2024-03-02T02:01:08.954Z,100366.28
2024-03-02T02:03:10.904Z,100364.59
2024-03-02T02:05:12.784Z,100358.59
2024-03-02T02:07:15.847Z,100355.16
2024-03-02T02:09:19.682Z,100351.78
2024-03-02T02:11:21.543Z,100351.81
2024-03-02T02:13:23.313Z,100351.84
2024-03-02T02:15:32.011Z,100344.97
2024-03-02T02:17:33.947Z,100343.34
2024-03-02T02:19:35.703Z,100343.34
2024-03-02T02:21:37.496Z,100352.00
2024-03-02T02:23:39.190Z,100347.72
2024-03-02T02:25:40.905Z,100339.13
2024-03-02T02:27:42.685Z,100345.19
2024-03-02T02:29:44.526Z,100337.50
2024-03-02T02:31:46.217Z,100333.22
2024-03-02T02:33:47.998Z,100336.69
2024-03-02T02:35:49.734Z,100335.00
2024-03-02T02:37:52.902Z,100331.63
2024-03-02T02:39:54.653Z,100338.53
2024-03-02T02:41:56.396Z,100335.13
2024-03-02T02:43:58.133Z,100329.94
2024-03-02T02:46:00.010Z,100322.25
2024-03-02T02:48:03.374Z,100327.41
2024-03-02T02:50:05.900Z,100321.44
2024-03-02T02:52:07.744Z,100321.47
2024-03-02T02:54:09.493Z,100318.91
2024-03-02T02:56:11.282Z,100322.41
2024-03-02T02:58:13.264Z,100313.81
2024-03-02T03:00:17.439Z,100311.22
2024-03-02T03:02:20.010Z,100310.41
2024-03-02T03:04:21.767Z,100312.16
2024-03-02T03:06:23.532Z,100303.56
2024-03-02T03:08:25.636Z,100307.03
2024-03-02T03:10:28.924Z,100301.03
2024-03-02T03:12:31.224Z,100312.22
2024-03-02T03:14:32.955Z,100313.13
2024-03-02T03:16:34.677Z,100320.06
2024-03-02T03:18:36.428Z,100308.84
2024-03-02T03:20:38.252Z,100304.56
2024-03-02T03:22:40.410Z,100306.31
2024-03-02T03:24:42.184Z,100302.03
2024-03-02T03:26:43.910Z,100298.59
2024-03-02T03:28:45.819Z,100297.75
2024-03-02T03:30:47.601Z,100295.16
2024-03-02T03:32:51.984Z,100293.44
2024-03-02T03:34:53.704Z,100298.63
2024-03-02T03:36:55.582Z,100296.06
2024-03-02T03:38:57.305Z,100291.75
2024-03-02T03:40:59.061Z,100299.50
2024-03-02T03:43:01.238Z,100296.91
2024-03-02T03:45:03.750Z,100294.38
2024-03-02T03:47:05.584Z,100299.56
2024-03-02T03:49:07.335Z,100291.81
2024-03-02T03:51:09.025Z,100281.53
2024-03-02T03:53:11.031Z,100287.53
2024-03-02T03:55:12.848Z,100290.13
2024-03-02T03:57:14.631Z,100289.28
2024-03-02T03:59:16.378Z,100291.03
2024-03-02T04:01:18.219Z,100286.69
2024-03-02T04:03:20.005Z,100287.59
2024-03-02T04:05:21.762Z,100279.84
2024-03-02T04:07:23.478Z,100279.00
2024-03-02T04:09:25.202Z,100278.16
2024-03-02T04:11:26.990Z,100282.41
2024-03-02T04:13:28.708Z,100274.66
2024-03-02T04:15:30.468Z,100271.25
2024-03-02T04:17:34.040Z,100280.72
2024-03-02T04:19:35.773Z,100277.28
2024-03-02T04:21:37.602Z,100279.00
2024-03-02T04:23:39.674Z,100284.16
2024-03-02T04:25:41.432Z,100291.97
2024-03-02T04:27:43.145Z,100290.22
2024-03-02T04:29:44.918Z,100294.50
2024-03-02T04:31:46.688Z,100303.94
2024-03-02T04:33:48.670Z,100309.09
2024-03-02T04:35:50.404Z,100309.13
2024-03-02T04:37:52.324Z,100310.84
2024-03-02T04:39:54.075Z,100310.84
2024-03-02T04:41:55.909Z,100307.38
2024-03-02T04:43:57.738Z,100312.53
2024-03-02T04:46:00.203Z,100314.28
2024-03-02T04:48:01.937Z,100313.44
2024-03-02T04:50:03.954Z,100313.38
2024-03-02T04:52:05.865Z,100309.06
2024-03-02T04:54:07.549Z,100324.56
2024-03-02T04:56:40.479Z,100321.94
2024-03-02T04:58:42.183Z,100324.47
2024-03-02T05:00:44.422Z,100322.72
2024-03-02T05:02:46.267Z,100319.28
2024-03-02T05:04:49.372Z,100315.84
2024-03-02T05:06:54.449Z,100317.53
2024-03-02T05:08:56.246Z,100320.97
2024-03-02T05:11:17.966Z,100314.13
2024-03-02T05:13:19.789Z,100323.59
2024-03-02T05:15:22.930Z,100323.56
2024-03-02T05:17:24.654Z,100323.56
2024-03-02T05:19:26.619Z,100328.72
2024-03-02T05:21:28.416Z,100327.00
2024-03-02T05:23:30.249Z,100326.19
2024-03-02T05:25:32.110Z,100323.63
2024-03-02T05:27:34.454Z,100319.34
2024-03-02T05:29:36.243Z,100324.53
2024-03-02T05:31:37.934Z,100329.72
2024-03-02T05:33:39.981Z,100318.59
2024-03-02T05:35:41.813Z,100324.66
2024-03-02T05:37:43.569Z,100327.25
2024-03-02T05:39:45.452Z,100334.16
2024-03-02T05:41:47.159Z,100336.84
2024-03-02T05:43:48.857Z,100340.28
2024-03-02T05:45:50.772Z,100338.63
2024-03-02T05:47:52.471Z,100338.63
2024-03-02T05:49:54.219Z,100336.94
2024-03-02T05:51:56.176Z,100340.44
2024-03-02T05:53:57.883Z,100345.63
2024-03-02T05:56:00.875Z,100344.78
2024-03-02T05:58:04.529Z,100346.53
2024-03-02T06:00:09.458Z,100345.69
2024-03-02T06:02:11.242Z,100347.47
2024-03-02T06:04:13.147Z,100343.16
2024-03-02T06:06:14.845Z,100345.81
2024-03-02T06:08:16.562Z,100349.25
2024-03-02T06:10:18.865Z,100346.72
2024-03-02T06:12:20.611Z,100351.03
2024-03-02T06:14:22.425Z,100354.50
2024-03-02T06:16:24.359Z,100350.25
2024-03-02T06:18:26.083Z,100358.00
2024-03-02T06:20:28.299Z,100351.97
2024-03-02T06:22:29.959Z,100356.31
2024-03-02T06:24:31.706Z,100353.75
2024-03-02T06:26:33.441Z,100360.66
2024-03-02T06:28:37.736Z,100366.72
2024-03-02T06:30:39.539Z,100361.56
2024-03-02T06:32:41.357Z,100358.97
2024-03-02T06:34:43.065Z,100369.25
2024-03-02T06:36:44.835Z,100358.03
2024-03-02T06:38:46.600Z,100355.47
2024-03-02T06:40:48.393Z,100357.16
2024-03-02T06:42:53.049Z,100357.16
2024-03-02T06:44:54.931Z,100356.25
2024-03-02T06:46:56.730Z,100362.25
2024-03-02T06:48:58.622Z,100363.06
2024-03-02T06:51:00.354Z,100362.16
2024-03-02T06:53:02.068Z,100365.56
2024-03-02T06:55:05.597Z,100370.72
2024-03-02T06:57:07.519Z,100384.44
2024-03-02T06:59:09.249Z,100383.53
2024-03-02T07:01:11.341Z,100384.34
2024-03-02T07:03:13.795Z,100382.59
2024-03-02T07:05:15.725Z,100388.59
2024-03-02T07:07:17.450Z,100387.69
2024-03-02T07:09:19.195Z,100399.72
2024-03-02T07:11:21.015Z,100395.34
2024-03-02T07:13:22.769Z,100402.16
2024-03-02T07:15:30.279Z,100403.00
2024-03-02T07:17:32.954Z,100396.84
2024-03-02T07:19:36.693Z,100400.25
2024-03-02T07:21:38.579Z,100392.47
2024-03-02T07:23:40.271Z,100399.28
2024-03-02T07:27:46.805Z,100404.34
2024-03-02T07:29:48.580Z,100405.16
2024-03-02T07:31:50.399Z,100406.00
2024-03-02T07:33:52.818Z,100409.38
2024-03-02T07:36:00.041Z,100411.88
2024-03-02T07:38:03.048Z,100406.63
2024-03-02T07:40:05.149Z,100410.00
2024-03-02T07:42:07.616Z,100418.56
2024-03-02T07:44:09.354Z,100409.84
2024-03-02T07:46:11.087Z,100404.63
2024-03-02T07:48:13.031Z,100411.44
2024-03-02T07:50:14.719Z,100404.47
2024-03-02T07:52:16.480Z,100398.41
2024-03-02T07:54:18.171Z,100404.38
2024-03-02T07:56:23.680Z,100406.00
2024-03-02T07:58:25.584Z,100409.38
2024-03-02T08:00:28.610Z,100417.88
2024-03-02T08:02:30.298Z,100415.22
2024-03-02T08:04:32.162Z,100415.13
2024-03-02T08:06:34.000Z,100411.59
2024-03-02T08:08:35.780Z,100411.53
2024-03-02T08:10:39.045Z,100406.25
2024-03-02T08:12:41.054Z,100409.59
2024-03-02T08:14:42.849Z,100423.28
2024-03-02T08:16:44.762Z,100422.34
2024-03-02T08:18:47.784Z,100420.53
2024-03-02T08:20:49.534Z,100422.16
2024-03-02T08:22:52.067Z,100421.19
2024-03-02T08:24:54.055Z,100434.06
2024-03-02T08:26:55.778Z,100429.66
2024-03-02T08:28:57.585Z,100433.00
2024-03-02T08:30:59.465Z,100438.06
2024-03-02T08:33:01.340Z,100440.50
2024-03-02T08:35:03.148Z,100440.34
2024-03-02T08:37:05.300Z,100449.63
2024-03-02T08:39:08.952Z,100446.81
2024-03-02T08:41:10.757Z,100449.19
2024-03-02T08:43:12.756Z,100449.00
2024-03-02T08:45:14.865Z,100453.09
2024-03-02T08:47:16.605Z,100455.44
2024-03-02T08:49:19.771Z,100460.41
2024-03-02T08:51:21.521Z,100461.00
2024-03-02T08:53:23.332Z,100463.44
2024-03-02T08:55:24.995Z,100464.09
2024-03-02T08:57:27.880Z,100457.00
2024-03-02T08:59:29.694Z,100466.28
2024-03-02T09:01:31.539Z,100464.38
2024-03-02T09:03:34.840Z,100461.56
2024-03-02T09:05:36.683Z,100462.25
2024-03-02T09:07:39.857Z,100460.34
2024-03-02T09:09:41.648Z,100460.19
2024-03-02T09:11:43.435Z,100464.41
2024-03-02T09:13:45.649Z,100461.50
2024-03-02T09:15:47.511Z,100462.97
2024-03-02T09:17:49.365Z,100462.81
2024-03-02T09:19:54.103Z,100461.75
2024-03-02T09:21:57.261Z,100464.16
2024-03-02T09:23:59.176Z,100464.81
2024-03-02T09:26:01.192Z,100467.22
2024-03-02T09:28:04.307Z,100472.25
2024-03-02T09:30:09.497Z,100467.69
2024-03-02T09:32:15.059Z,100466.53
2024-03-02T09:34:17.318Z,100470.59
2024-03-02T09:36:20.360Z,100466.84
2024-03-02T09:38:22.100Z,100470.88
2024-03-02T09:40:24.187Z,100472.38
2024-03-02T09:42:27.212Z,100469.53
2024-03-02T09:44:29.236Z,100473.41
2024-03-02T09:46:31.050Z,100477.31
2024-03-02T09:48:32.782Z,100469.25
2024-03-02T09:50:34.802Z,100471.56
2024-03-02T09:52:38.201Z,100465.97
2024-03-02T09:54:40.081Z,100480.19
2024-03-02T09:56:41.758Z,100478.78
2024-03-02T09:58:45.277Z,100467.91
2024-03-02T10:00:47.247Z,100478.75
2024-03-02T10:02:50.438Z,100476.41
2024-03-02T10:04:52.275Z,100475.13
2024-03-02T10:07:13.633Z,100470.34
2024-03-02T10:09:28.662Z,100465.56
2024-03-02T10:11:32.578Z,100470.47
2024-03-02T10:13:35.968Z,100476.41
2024-03-02T10:15:39.539Z,100474.44
2024-03-02T10:17:42.614Z,100470.78
2024-03-02T10:19:44.297Z,100480.00
2024-03-02T10:21:50.895Z,100477.88
2024-03-02T10:23:52.670Z,100477.44
2024-03-02T10:25:58.342Z,100474.41
2024-03-02T10:28:01.457Z,100473.16
2024-03-02T10:30:07.275Z,100471.06
2024-03-02T10:32:12.902Z,100474.09
2024-03-02T10:34:15.271Z,100476.38
2024-03-02T10:36:17.480Z,100471.03
2024-03-02T10:38:19.165Z,100474.22
2024-03-02T10:40:24.481Z,100471.25
2024-03-02T10:42:27.092Z,100468.28
2024-03-02T10:44:29.833Z,100473.94
2024-03-02T10:46:33.826Z,100464.91
2024-03-02T10:48:38.168Z,100463.56
2024-03-02T10:50:39.922Z,100467.34
2024-03-02T10:52:41.847Z,100472.19
2024-03-02T10:54:43.674Z,100474.34
2024-03-02T10:56:47.702Z,100472.91
2024-03-02T10:58:52.887Z,100464.69
2024-03-02T11:00:55.749Z,100465.78
2024-03-02T11:03:03.312Z,100462.53
2024-03-02T11:05:11.355Z,100467.84
2024-03-02T11:07:14.561Z,100466.75
2024-03-02T11:09:20.140Z,100469.50
2024-03-02T11:11:29.205Z,100473.63
2024-03-02T11:13:37.605Z,100470.88
2024-03-02T11:15:44.984Z,100468.44
2024-03-02T11:17:48.030Z,100465.94
2024-03-02T11:19:50.629Z,100466.44
2024-03-02T11:21:52.998Z,100471.66
2024-03-02T11:23:54.933Z,100465.44
2024-03-02T11:25:56.628Z,100464.63
2024-03-02T11:28:11.638Z,100465.41
2024-03-02T11:30:39.192Z,100474.09
2024-03-02T11:32:41.182Z,100470.19
2024-03-02T11:34:53.775Z,100464.75
2024-03-02T11:36:55.942Z,100462.59
2024-03-02T11:38:58.046Z,100459.66
2024-03-02T11:41:02.363Z,100451.44
2024-03-02T11:43:07.538Z,100459.88
2024-03-02T11:45:10.746Z,100448.84
2024-03-02T11:47:15.784Z,100451.44
2024-03-02T11:49:38.023Z,100455.47
2024-03-02T11:51:51.689Z,100455.34
2024-03-02T11:53:55.700Z,100449.28
2024-03-02T11:55:57.437Z,100448.44
2024-03-02T11:58:01.327Z,100456.44
2024-03-02T12:00:04.963Z,100448.41
2024-03-02T12:02:07.117Z,100452.88
2024-03-02T12:04:09.339Z,100452.59
2024-03-02T12:06:11.312Z,100448.16
2024-03-02T12:08:14.189Z,100455.28
2024-03-02T12:10:16.592Z,100458.34
2024-03-02T12:12:20.242Z,100456.53
2024-03-02T12:14:21.922Z,100452.16
2024-03-02T12:16:26.819Z,100458.91
2024-03-02T12:18:28.619Z,100453.03
2024-03-02T12:20:32.587Z,100453.81
2024-03-02T12:22:34.593Z,100454.94
2024-03-02T12:24:36.486Z,100455.59
2024-03-02T12:26:38.550Z,100456.69
2024-03-02T12:28:40.990Z,100449.66
2024-03-02T12:30:43.000Z,100447.19
2024-03-02T12:32:45.671Z,100459.31
2024-03-02T12:34:48.629Z,100454.69
2024-03-02T12:36:53.498Z,100460.25
2024-03-02T12:38:56.369Z,100458.28
2024-03-02T12:40:58.121Z,100455.63
2024-03-02T12:43:00.277Z,100452.97
2024-03-02T12:45:02.147Z,100463.16
2024-03-02T12:47:04.682Z,100454.94
2024-03-02T12:49:11.227Z,100455.63
2024-03-02T12:51:13.299Z,100444.78
2024-03-02T12:53:18.145Z,100449.59
2024-03-02T12:55:21.751Z,100445.03
2024-03-02T12:57:27.414Z,100445.75
2024-03-02T12:59:29.775Z,100444.22
2024-03-02T13:01:32.666Z,100440.22
2024-03-02T13:03:37.765Z,100438.13
2024-03-02T13:05:40.637Z,100440.78
2024-03-02T13:07:42.415Z,100439.03
2024-03-02T13:09:44.559Z,100441.00
2024-03-02T13:11:46.553Z,100438.47
2024-03-02T13:13:48.505Z,100436.00
2024-03-02T13:15:50.268Z,100444.22
2024-03-02T13:17:52.305Z,100437.13
2024-03-02T13:19:58.768Z,100436.75
2024-03-02T13:22:00.487Z,100432.72
2024-03-02T13:24:02.717Z,100424.16
2024-03-02T13:26:04.849Z,100417.34
2024-03-02T13:28:10.096Z,100421.72
2024-03-02T13:30:12.398Z,100426.66
2024-03-02T13:32:14.526Z,100423.38
2024-03-02T13:34:16.211Z,100428.13
2024-03-02T13:36:18.586Z,100419.56
2024-03-02T13:38:21.346Z,100410.28
2024-03-02T13:40:24.854Z,100407.81
2024-03-02T13:42:27.027Z,100411.56
2024-03-02T13:44:28.773Z,100402.44
2024-03-02T13:46:30.447Z,100402.56
2024-03-02T13:48:32.396Z,100404.50
2024-03-02T13:50:34.171Z,100400.66
2024-03-02T13:52:35.920Z,100400.97
2024-03-02T13:54:56.055Z,100407.00
2024-03-02T13:57:01.053Z,100398.56
2024-03-02T13:59:02.909Z,100401.78
2024-03-02T14:01:06.452Z,100405.56
2024-03-02T14:03:08.659Z,100397.69
2024-03-02T14:05:15.115Z,100394.47
2024-03-02T14:07:16.827Z,100403.34
2024-03-02T14:09:20.473Z,100401.38
2024-03-02T14:11:22.199Z,100396.94
2024-03-02T14:13:24.185Z,100394.31
2024-03-02T14:15:26.073Z,100389.59
2024-03-02T14:17:27.962Z,100395.22
2024-03-02T14:19:29.756Z,100393.28
2024-03-02T14:21:32.114Z,100393.31
2024-03-02T14:23:33.815Z,100393.31
2024-03-02T14:25:35.577Z,100392.72
2024-03-02T14:27:51.091Z,100389.22
2024-03-02T14:29:59.767Z,100386.72
2024-03-02T14:32:01.490Z,100395.94
2024-03-02T14:34:04.365Z,100386.38
2024-03-02T14:36:06.526Z,100383.88
2024-03-02T14:38:08.275Z,100383.38
2024-03-02T14:40:11.040Z,100388.56
2024-03-02T14:42:12.860Z,100386.25
2024-03-02T14:44:14.590Z,100384.81
2024-03-02T14:46:17.426Z,100380.41
2024-03-02T14:48:19.201Z,100377.59
2024-03-02T14:50:21.047Z,100378.50
2024-03-02T14:52:22.896Z,100374.44
2024-03-02T14:54:25.057Z,100372.69
2024-03-02T14:56:26.953Z,100373.16
2024-03-02T14:58:28.666Z,100367.25
2024-03-02T15:00:30.517Z,100369.06
2024-03-02T15:02:32.258Z,100370.38
2024-03-02T15:04:33.961Z,100368.38
2024-03-02T15:06:35.837Z,100368.19
2024-03-02T15:08:37.677Z,100366.91
2024-03-02T15:10:39.417Z,100370.31
2024-03-02T15:12:41.174Z,100368.19
2024-03-02T15:14:49.112Z,100369.19
2024-03-02T15:16:50.933Z,100369.28
2024-03-02T15:18:52.773Z,100364.53
2024-03-02T15:20:54.656Z,100360.63
2024-03-02T15:22:56.396Z,100356.25
2024-03-02T15:24:58.279Z,100359.22
2024-03-02T15:27:00.150Z,100355.66
2024-03-02T15:29:01.827Z,100346.22
2024-03-02T15:31:03.652Z,100355.31
2024-03-02T15:33:05.580Z,100352.47
2024-03-02T15:35:07.735Z,100355.13
2024-03-02T15:37:09.751Z,100353.31
2024-03-02T15:39:12.093Z,100354.94
2024-03-02T15:41:13.788Z,100355.25
2024-03-02T15:43:15.534Z,100353.16
2024-03-02T15:45:17.959Z,100349.44
2024-03-02T15:47:21.681Z,100355.03
2024-03-02T15:49:23.491Z,100354.75
2024-03-02T15:51:25.412Z,100347.81
2024-03-02T15:53:27.098Z,100351.59
2024-03-02T15:55:28.807Z,100352.47
2024-03-02T15:57:30.630Z,100350.47
2024-03-02T15:59:32.305Z,100345.56
2024-03-02T16:01:34.470Z,100356.44
2024-03-02T16:03:36.486Z,100360.88
2024-03-02T16:05:39.917Z,100352.97
2024-03-02T16:07:41.691Z,100351.53
2024-03-02T16:09:43.631Z,100354.19
2024-03-02T16:11:45.440Z,100356.13
2024-03-02T16:13:47.144Z,100356.72
2024-03-02T16:15:49.082Z,100351.34
2024-03-02T16:17:50.933Z,100357.91
2024-03-02T16:19:52.883Z,100359.31
2024-03-02T16:21:55.071Z,100361.38
2024-03-02T16:23:56.812Z,100362.59
2024-03-02T16:25:58.929Z,100366.13
2024-03-02T16:28:02.725Z,100366.66
2024-03-02T16:30:05.015Z,100358.06
2024-03-02T16:32:07.099Z,100365.97
2024-03-02T16:34:08.857Z,100359.00
2024-03-02T16:36:10.797Z,100365.84
2024-03-02T16:38:13.534Z,100367.44
2024-03-02T16:40:15.272Z,100374.09
2024-03-02T16:42:21.418Z,100377.38
2024-03-02T16:44:23.119Z,100372.69
2024-03-02T16:46:24.831Z,100376.53
2024-03-02T16:48:26.608Z,100379.69
2024-03-02T16:50:28.478Z,100370.69
2024-03-02T16:52:30.224Z,100381.44
2024-03-02T16:54:31.897Z,100378.41
2024-03-02T16:56:41.956Z,100372.75
2024-03-02T16:58:43.665Z,100377.59
2024-03-02T17:00:46.393Z,100373.81
2024-03-02T17:02:48.101Z,100368.97
2024-03-02T17:04:49.823Z,100375.41
2024-03-02T17:06:52.641Z,100370.78
2024-03-02T17:08:54.386Z,100375.34
2024-03-02T17:10:56.342Z,100373.31
2024-03-02T17:13:01.110Z,100378.97
2024-03-02T17:15:02.900Z,100381.94
2024-03-02T17:17:04.840Z,100383.28
2024-03-02T17:19:09.114Z,100385.41
2024-03-02T17:21:12.344Z,100391.91
2024-03-02T17:23:14.156Z,100396.69
2024-03-02T17:25:15.945Z,100382.47
2024-03-02T17:27:17.665Z,100387.19
2024-03-02T17:29:19.428Z,100383.28
2024-03-02T17:31:21.160Z,100394.06
2024-03-02T17:33:22.902Z,100392.69
2024-03-02T17:35:25.294Z,100395.69
2024-03-02T17:37:27.024Z,100395.09
2024-03-02T17:39:28.832Z,100404.97
2024-03-02T17:41:30.559Z,100397.47
2024-03-02T17:43:32.289Z,100409.16
2024-03-02T17:45:34.131Z,100405.13
2024-03-02T17:47:36.011Z,100401.13
2024-03-02T17:49:37.930Z,100409.28
2024-03-02T17:51:39.788Z,100409.53
2024-03-02T17:53:41.534Z,100407.19
2024-03-02T17:55:43.237Z,100409.25
2024-03-02T17:57:45.015Z,100415.63
2024-03-02T17:59:46.706Z,100418.53
2024-03-02T18:01:48.538Z,100416.00
2024-03-02T18:03:50.643Z,100412.06
2024-03-02T18:05:52.355Z,100417.44
2024-03-02T18:07:54.362Z,100423.63
2024-03-02T18:10:01.692Z,100414.34
2024-03-02T18:12:04.764Z,100420.53
2024-03-02T18:14:07.428Z,100418.22
2024-03-02T18:16:09.219Z,100413.22
2024-03-02T18:18:11.213Z,100417.03
2024-03-02T18:20:13.385Z,100416.44
2024-03-02T18:22:16.495Z,100417.59
2024-03-02T18:24:18.918Z,100429.09
2024-03-02T18:26:23.007Z,100427.53
2024-03-02T18:28:25.696Z,100428.66
2024-03-02T18:30:27.545Z,100429.69
2024-03-02T18:32:29.315Z,100430.72
2024-03-02T18:34:31.636Z,100430.00
2024-03-02T18:36:33.460Z,100431.81
2024-03-02T18:38:35.377Z,100434.63
2024-03-02T18:40:37.138Z,100437.44
2024-03-02T18:42:39.106Z,100430.72
2024-03-02T18:44:42.518Z,100442.13
2024-03-02T18:46:47.027Z,100437.06
2024-03-02T18:48:49.936Z,100439.00
2024-03-02T18:50:51.963Z,100438.28
2024-03-02T18:52:53.889Z,100434.94
2024-03-02T18:54:55.723Z,100445.59
2024-03-02T18:56:57.531Z,100443.16
2024-03-02T18:58:59.698Z,100444.19
2024-03-02T19:01:01.733Z,100451.28
2024-03-02T19:03:04.855Z,100444.50
2024-03-02T19:05:07.321Z,100449.09
2024-03-02T19:07:09.219Z,100451.88
2024-03-02T19:09:11.401Z,100452.84
2024-03-02T19:11:17.316Z,100446.19
2024-03-02T19:13:19.235Z,100454.19
2024-03-02T19:15:21.117Z,100461.28
2024-03-02T19:17:22.895Z,100456.22
2024-03-02T19:19:27.671Z,100458.09
2024-03-02T19:21:29.789Z,100457.38
2024-03-02T19:23:36.465Z,100452.28
2024-03-02T19:25:41.756Z,100456.75
2024-03-02T19:27:43.762Z,100451.75
2024-03-02T19:29:48.808Z,100456.28
2024-03-02T19:31:50.515Z,100455.44
2024-03-02T19:33:52.935Z,100453.81
2024-03-02T19:35:55.635Z,100456.53
2024-03-02T19:37:57.472Z,100462.69
2024-03-02T19:39:59.198Z,100457.63
2024-03-02T19:42:01.844Z,100454.28
2024-03-02T19:44:04.890Z,100455.25
2024-03-02T19:46:06.874Z,100458.81
2024-03-02T19:48:08.781Z,100462.41
2024-03-02T19:50:13.958Z,100467.78
2024-03-02T19:52:16.266Z,100466.22
2024-03-02T19:54:18.082Z,100461.94
2024-03-02T19:56:20.419Z,100461.22
2024-03-02T19:58:22.230Z,100465.69
2024-03-02T20:00:24.258Z,100461.50
2024-03-02T20:02:28.388Z,100462.53
2024-03-02T20:04:30.186Z,100459.19
2024-03-02T20:06:31.987Z,100459.34
2024-03-02T20:08:33.724Z,100461.22
2024-03-02T20:10:35.719Z,100463.91
2024-03-02T20:12:38.575Z,100468.28
2024-03-02T20:14:40.900Z,100466.66
2024-03-02T20:16:45.783Z,100460.72
2024-03-02T20:18:47.520Z,100460.75
2024-03-02T20:20:49.338Z,100458.16
2024-03-02T20:22:51.208Z,100464.34
2024-03-02T20:24:52.939Z,100460.00
2024-03-02T20:26:54.666Z,100456.63
2024-03-02T20:28:57.072Z,100458.50
2024-03-02T20:30:58.815Z,100458.53
2024-03-02T20:33:00.631Z,100456.00
2024-03-02T20:35:02.598Z,100461.31
2024-03-02T20:37:05.732Z,100457.94
2024-03-02T20:39:07.907Z,100452.72
2024-03-02T20:41:20.734Z,100461.44
2024-03-02T20:43:22.434Z,100458.03
2024-03-02T20:45:24.524Z,100449.38
2024-03-02T20:47:26.541Z,100450.28
2024-03-02T20:49:31.410Z,100451.13
2024-03-02T20:51:33.318Z,100451.19
2024-03-02T20:53:35.062Z,100449.50
2024-03-02T20:55:37.975Z,100448.69
2024-03-02T20:57:42.502Z,100457.41
2024-03-02T20:59:44.332Z,100446.25
2024-03-02T21:01:48.828Z,100449.81
2024-03-02T21:03:50.660Z,100448.22
2024-03-02T21:05:52.464Z,100444.00
2024-03-02T21:07:54.233Z,100450.22
2024-03-02T21:09:58.290Z,100443.34
2024-03-02T21:12:00.128Z,100445.19
2024-03-02T21:14:01.923Z,100441.81
2024-03-02T21:16:04.571Z,100449.66
2024-03-02T21:18:06.332Z,100449.75
2024-03-02T21:20:10.301Z,100449.91
2024-03-02T21:22:12.116Z,100443.97
2024-03-02T21:24:13.902Z,100455.28
2024-03-02T21:26:15.593Z,100442.34
2024-03-02T21:28:17.353Z,100452.84
2024-03-02T21:30:19.710Z,100444.28
2024-03-02T21:32:21.417Z,100447.84
2024-03-02T21:34:23.275Z,100436.66
2024-03-02T21:36:25.063Z,100442.78
2024-03-02T21:38:26.816Z,100439.44
2024-03-02T21:40:28.624Z,100436.94
2024-03-02T21:42:30.396Z,100438.69
2024-03-02T21:44:32.496Z,100435.34
2024-03-02T21:46:34.248Z,100438.00
2024-03-02T21:48:35.959Z,100436.34
2024-03-02T21:50:37.873Z,100438.16
2024-03-02T21:52:42.700Z,100437.34
2024-03-02T21:54:44.444Z,100430.53
2024-03-02T21:56:47.053Z,100435.88
2024-03-02T21:58:49.658Z,100428.09
2024-03-02T22:00:51.500Z,100434.19
2024-03-02T22:02:56.713Z,100423.88
2024-03-02T22:05:00.776Z,100424.75
2024-03-02T22:07:02.560Z,100426.50
2024-03-02T22:09:04.356Z,100426.59
2024-03-02T22:11:06.304Z,100426.72
2024-03-02T22:13:08.144Z,100426.75
2024-03-02T22:15:10.405Z,100421.63
2024-03-02T22:17:13.365Z,100422.59
2024-03-02T22:19:15.249Z,100422.69
2024-03-02T22:21:17.034Z,100416.69
2024-03-02T22:23:18.712Z,100426.22
2024-03-02T22:25:40.405Z,100418.56
2024-03-02T22:27:42.612Z,100417.69
2024-03-02T22:29:44.596Z,100410.88
2024-03-02T22:31:46.313Z,100409.19
2024-03-02T22:33:48.176Z,100412.59
2024-03-02T22:35:49.880Z,100410.94
2024-03-02T22:37:51.764Z,100413.53
2024-03-02T22:39:53.501Z,100416.13
2024-03-02T22:41:56.310Z,100405.75
2024-03-02T22:43:59.529Z,100411.00
2024-03-02T22:46:01.325Z,100419.63
2024-03-02T22:48:04.511Z,100411.84
2024-03-02T22:50:07.448Z,100412.72
2024-03-02T22:52:09.284Z,100408.50
2024-03-02T22:54:11.052Z,100402.44
2024-03-02T22:56:12.789Z,100405.06
2024-03-02T22:58:14.550Z,100405.06
2024-03-02T23:00:34.672Z,100412.88
2024-03-02T23:02:36.430Z,100409.50
2024-03-02T23:04:38.123Z,100405.22
2024-03-02T23:06:39.990Z,100405.28
2024-03-02T23:08:41.701Z,100416.53
2024-03-02T23:10:43.536Z,100410.56
2024-03-02T23:12:45.368Z,100414.06
2024-03-02T23:14:47.168Z,100412.34
2024-03-02T23:16:48.892Z,100410.66
2024-03-02T23:18:52.317Z,100406.41
2024-03-02T23:20:54.393Z,100409.88
2024-03-02T23:22:56.213Z,100407.34